createdAt,value
2023-12-30T00:02:21.714Z,4.18
2023-12-30T00:05:26.423Z,4.19
2023-12-30T00:08:28.914Z,4.16
2023-12-30T00:11:31.721Z,4.10
2023-12-30T00:14:34.149Z,4.11
2023-12-30T00:17:37.162Z,4.10
2023-12-30T00:20:39.734Z,4.06
2023-12-30T00:23:46.344Z,4.01
2023-12-30T00:26:49.116Z,3.95
2023-12-30T00:29:52.080Z,3.91
2023-12-30T00:32:54.551Z,3.88
2023-12-30T00:35:58.258Z,3.86
2023-12-30T00:39:00.711Z,3.90
2023-12-30T00:42:03.554Z,3.84
2023-12-30T00:45:06.862Z,3.80
2023-12-30T00:48:09.610Z,3.88
2023-12-30T00:51:12.180Z,3.84
2023-12-30T00:54:15.028Z,3.71
2023-12-30T00:57:17.504Z,3.85
2023-12-30T01:00:20.220Z,3.86
2023-12-30T01:03:22.732Z,3.92
2023-12-30T01:06:25.627Z,3.84
2023-12-30T01:09:28.070Z,3.86
2023-12-30T01:12:30.972Z,3.74
2023-12-30T01:15:34.218Z,3.77
2023-12-30T01:18:37.112Z,3.75
2023-12-30T01:21:39.597Z,3.68
2023-12-30T01:24:42.292Z,3.68
2023-12-30T01:27:44.868Z,3.66
2023-12-30T01:30:48.129Z,3.53
2023-12-30T01:33:50.890Z,3.50
2023-12-30T01:36:55.823Z,3.35
2023-12-30T01:39:58.323Z,3.28
2023-12-30T01:43:04.453Z,3.40
2023-12-30T01:46:10.456Z,3.36
2023-12-30T01:49:14.057Z,3.28
2023-12-30T01:52:17.125Z,3.20
2023-12-30T01:55:20.803Z,3.16
2023-12-30T01:58:24.680Z,3.12
2023-12-30T02:01:28.454Z,3.07
2023-12-30T02:04:32.018Z,3.18
2023-12-30T02:07:34.810Z,3.16
2023-12-30T02:10:38.025Z,3.10
2023-12-30T02:13:44.113Z,3.18
2023-12-30T02:16:47.042Z,3.13
2023-12-30T02:19:51.886Z,2.93
2023-12-30T02:22:55.982Z,2.97
2023-12-30T02:25:58.551Z,2.89
2023-12-30T02:29:01.302Z,2.90
2023-12-30T02:32:03.742Z,2.71
2023-12-30T02:35:06.833Z,2.87
2023-12-30T02:38:09.970Z,2.70
2023-12-30T02:41:12.745Z,2.71
2023-12-30T02:44:20.231Z,2.82
2023-12-30T02:47:23.181Z,2.79
2023-12-30T02:50:25.683Z,2.82
2023-12-30T02:53:28.366Z,2.75
2023-12-30T02:56:30.786Z,2.69
2023-12-30T02:59:33.968Z,2.72
2023-12-30T03:02:37.648Z,2.48
2023-12-30T03:05:40.655Z,2.48
2023-12-30T03:08:43.099Z,2.55
2023-12-30T03:11:46.402Z,2.61
2023-12-30T03:14:48.875Z,2.60
2023-12-30T03:17:51.798Z,2.64
2023-12-30T03:20:54.322Z,2.63
2023-12-30T03:23:57.124Z,2.69
2023-12-30T03:26:59.657Z,2.57
2023-12-30T03:30:02.487Z,2.61
2023-12-30T03:33:05.399Z,2.72
2023-12-30T03:36:08.944Z,2.67
2023-12-30T03:39:11.464Z,2.83
2023-12-30T03:42:14.263Z,2.71
2023-12-30T03:45:16.810Z,2.81
2023-12-30T03:48:19.966Z,2.90
2023-12-30T03:51:22.464Z,2.87
2023-12-30T03:54:25.272Z,2.76
2023-12-30T03:57:27.842Z,2.79
2023-12-30T04:00:30.645Z,2.82
2023-12-30T04:03:33.382Z,2.69
2023-12-30T04:06:36.001Z,2.77
2023-12-30T04:09:38.806Z,2.78
2023-12-30T04:12:41.261Z,2.73
2023-12-30T04:15:44.007Z,2.81
2023-12-30T04:18:46.535Z,2.79
2023-12-30T04:21:49.860Z,2.77
2023-12-30T04:24:54.250Z,2.83
2023-12-30T04:27:58.048Z,2.77
2023-12-30T04:31:01.282Z,2.86
2023-12-30T04:34:04.694Z,2.80
2023-12-30T04:37:07.193Z,2.81
2023-12-30T04:40:10.296Z,2.84
2023-12-30T04:43:13.109Z,2.78
2023-12-30T04:46:16.084Z,2.70
2023-12-30T04:49:18.617Z,2.78
2023-12-30T04:52:21.800Z,2.82
2023-12-30T04:55:24.984Z,2.76
2023-12-30T04:58:27.742Z,2.83
2023-12-30T05:01:32.478Z,2.77
2023-12-30T05:04:35.637Z,2.79
2023-12-30T05:07:38.146Z,2.82
2023-12-30T05:10:40.956Z,2.83
2023-12-30T05:13:44.754Z,2.77
2023-12-30T05:16:47.917Z,2.86
2023-12-30T05:19:50.467Z,2.87
2023-12-30T05:22:53.363Z,2.87
2023-12-30T05:25:55.744Z,2.89
2023-12-30T05:28:59.760Z,2.85
2023-12-30T05:32:05.236Z,2.78
2023-12-30T05:35:08.423Z,2.86
2023-12-30T05:38:13.740Z,2.82
2023-12-30T05:41:16.745Z,2.73
2023-12-30T05:44:19.160Z,2.64
2023-12-30T05:47:21.881Z,2.61
2023-12-30T05:50:24.325Z,2.58
2023-12-30T05:53:29.628Z,2.49
2023-12-30T05:56:32.043Z,2.44
2023-12-30T05:59:36.371Z,2.50
2023-12-30T06:02:38.893Z,2.36
2023-12-30T06:05:44.176Z,2.40
2023-12-30T06:08:48.482Z,2.33
2023-12-30T06:11:51.246Z,2.32
2023-12-30T06:14:56.333Z,2.33
2023-12-30T06:17:59.487Z,2.24
2023-12-30T06:21:03.239Z,2.17
2023-12-30T06:24:06.461Z,2.11
2023-12-30T06:27:08.892Z,2.09
2023-12-30T06:30:12.006Z,2.07
2023-12-30T06:33:14.462Z,1.95
2023-12-30T06:36:22.664Z,2.01
2023-12-30T06:39:25.153Z,2.07
2023-12-30T06:42:27.870Z,2.08
2023-12-30T06:45:30.505Z,2.00
2023-12-30T06:48:33.282Z,1.87
2023-12-30T06:55:52.565Z,2.08
2023-12-30T06:58:55.503Z,2.11
2023-12-30T07:01:58.006Z,2.05
2023-12-30T07:05:01.096Z,2.13
2023-12-30T07:08:03.717Z,2.10
2023-12-30T07:11:06.377Z,2.18
2023-12-30T07:14:08.814Z,2.16
2023-12-30T07:17:12.087Z,2.31
2023-12-30T07:20:14.638Z,2.26
2023-12-30T07:23:17.356Z,2.28
2023-12-30T07:26:20.033Z,2.16
2023-12-30T07:29:22.797Z,2.12
2023-12-30T07:32:25.265Z,2.12
2023-12-30T07:35:28.589Z,2.16
2023-12-30T07:38:32.142Z,2.07
2023-12-30T07:41:35.084Z,2.11
2023-12-30T07:44:39.669Z,2.23
2023-12-30T07:47:42.529Z,2.26
2023-12-30T07:50:45.134Z,2.21
2023-12-30T07:53:48.595Z,2.18
2023-12-30T07:56:51.453Z,2.16
2023-12-30T07:59:54.237Z,2.26
2023-12-30T08:02:56.718Z,2.31
2023-12-30T08:05:59.553Z,2.34
2023-12-30T08:09:02.061Z,2.29
2023-12-30T08:12:05.901Z,2.34
2023-12-30T08:15:10.470Z,2.47
2023-12-30T08:18:13.216Z,2.49
2023-12-30T08:21:16.059Z,2.45
2023-12-30T08:24:20.547Z,2.60
2023-12-30T08:27:23.184Z,2.71
2023-12-30T08:30:26.975Z,2.70
2023-12-30T08:33:29.752Z,2.75
2023-12-30T08:36:32.591Z,2.75
2023-12-30T08:39:38.573Z,2.76
2023-12-30T08:42:45.497Z,2.84
2023-12-30T08:45:48.025Z,2.79
2023-12-30T08:48:50.948Z,2.94
2023-12-30T08:51:53.520Z,3.11
2023-12-30T08:54:57.280Z,3.34
2023-12-30T08:58:01.049Z,3.49
2023-12-30T09:01:04.117Z,3.67
2023-12-30T09:04:06.843Z,3.78
2023-12-30T09:07:10.167Z,3.80
2023-12-30T09:10:13.065Z,3.63
2023-12-30T09:13:15.743Z,3.68
2023-12-30T09:16:18.645Z,3.75
2023-12-30T09:19:21.613Z,3.71
2023-12-30T09:22:24.198Z,3.61
2023-12-30T09:25:27.063Z,3.58
2023-12-30T09:28:31.931Z,3.56
2023-12-30T09:31:35.008Z,3.67
2023-12-30T09:34:42.062Z,3.71
2023-12-30T09:37:46.987Z,3.72
2023-12-30T09:40:53.594Z,3.73
2023-12-30T09:44:00.147Z,3.90
2023-12-30T09:47:09.163Z,3.97
2023-12-30T09:50:12.334Z,4.06
2023-12-30T09:53:15.044Z,4.00
2023-12-30T09:56:19.732Z,4.09
2023-12-30T09:59:22.728Z,4.17
2023-12-30T10:02:26.154Z,4.28
2023-12-30T10:05:29.014Z,4.37
2023-12-30T10:08:32.141Z,4.42
2023-12-30T10:11:36.403Z,4.70
2023-12-30T10:14:39.124Z,4.88
2023-12-30T10:17:42.341Z,5.16
2023-12-30T10:20:46.994Z,5.42
2023-12-30T10:23:52.633Z,5.30
2023-12-30T10:26:55.397Z,5.39
2023-12-30T10:30:01.025Z,5.39
2023-12-30T10:33:15.536Z,5.31
2023-12-30T10:36:19.767Z,5.50
2023-12-30T10:39:26.420Z,5.90
2023-12-30T10:42:29.138Z,6.07
2023-12-30T10:45:32.269Z,6.23
2023-12-30T10:48:38.742Z,6.30
2023-12-30T10:51:42.192Z,6.46
2023-12-30T10:58:03.338Z,6.75
2023-12-30T11:01:06.758Z,6.89
2023-12-30T11:04:13.928Z,6.97
2023-12-30T11:07:21.895Z,7.15
2023-12-30T11:10:24.378Z,7.15
2023-12-30T11:13:27.162Z,7.23
2023-12-30T11:16:34.111Z,7.24
2023-12-30T11:19:38.028Z,7.18
2023-12-30T11:22:42.206Z,7.28
2023-12-30T11:25:47.395Z,7.30
2023-12-30T11:28:50.765Z,7.42
2023-12-30T11:31:57.905Z,7.56
2023-12-30T11:35:00.773Z,7.60
2023-12-30T11:38:10.214Z,7.86
2023-12-30T11:41:12.762Z,7.97
2023-12-30T11:44:16.191Z,8.18
2023-12-30T11:47:22.893Z,8.07
2023-12-30T11:50:25.651Z,8.17
2023-12-30T11:53:33.627Z,8.15
2023-12-30T11:56:36.788Z,8.40
2023-12-30T11:59:39.540Z,8.30
2023-12-30T12:02:42.405Z,8.36
2023-12-30T12:05:45.239Z,8.62
2023-12-30T12:08:48.753Z,8.88
2023-12-30T12:11:51.980Z,8.86
2023-12-30T12:14:55.029Z,8.77
2023-12-30T12:17:57.980Z,8.96
2023-12-30T12:21:05.602Z,9.06
2023-12-30T12:24:08.588Z,9.31
2023-12-30T12:27:11.051Z,9.41
2023-12-30T12:30:14.183Z,9.62
2023-12-30T12:33:20.009Z,9.70
2023-12-30T12:36:23.317Z,9.54
2023-12-30T12:39:25.833Z,9.63
2023-12-30T12:42:31.081Z,9.69
2023-12-30T12:45:33.934Z,9.76
2023-12-30T12:48:39.262Z,9.87
2023-12-30T12:51:45.240Z,9.93
2023-12-30T12:54:48.605Z,10.08
2023-12-30T12:57:51.201Z,10.09
2023-12-30T13:00:54.424Z,10.23
2023-12-30T13:03:59.398Z,10.28
2023-12-30T13:07:02.214Z,10.42
2023-12-30T13:10:28.307Z,10.31
2023-12-30T13:13:31.197Z,10.36
2023-12-30T13:16:33.757Z,10.26
2023-12-30T13:19:37.898Z,10.31
2023-12-30T13:22:40.424Z,10.43
2023-12-30T13:25:44.315Z,10.31
2023-12-30T13:28:47.530Z,10.27
2023-12-30T13:31:54.485Z,10.32
2023-12-30T13:34:58.529Z,10.33
2023-12-30T13:38:02.515Z,10.20
2023-12-30T13:41:05.331Z,10.12
2023-12-30T13:44:13.031Z,10.13
2023-12-30T13:47:24.748Z,10.15
2023-12-30T13:50:32.758Z,10.03
2023-12-30T13:53:35.317Z,9.88
2023-12-30T13:56:43.114Z,9.81
2023-12-30T13:59:46.237Z,9.90
2023-12-30T14:02:54.038Z,9.72
2023-12-30T14:05:57.866Z,9.65
2023-12-30T14:09:14.261Z,9.60
2023-12-30T14:12:19.245Z,9.52
2023-12-30T14:15:21.709Z,9.51
2023-12-30T14:18:24.983Z,9.38
2023-12-30T14:21:27.708Z,9.27
2023-12-30T14:24:32.849Z,9.25
2023-12-30T14:27:37.082Z,9.20
2023-12-30T14:30:40.615Z,9.09
2023-12-30T14:33:43.714Z,9.08
2023-12-30T14:36:46.527Z,9.02
2023-12-30T14:39:49.345Z,9.01
2023-12-30T14:42:52.418Z,8.93
2023-12-30T14:45:55.166Z,8.82
2023-12-30T14:48:59.446Z,8.82
2023-12-30T14:52:02.303Z,8.83
2023-12-30T14:55:10.668Z,8.80
2023-12-30T14:58:13.127Z,8.79
2023-12-30T15:01:17.126Z,8.73
2023-12-30T15:04:19.669Z,8.61
2023-12-30T15:07:22.614Z,8.73
2023-12-30T15:10:25.805Z,8.84
2023-12-30T15:13:28.641Z,8.83
2023-12-30T15:16:31.296Z,8.78
2023-12-30T15:19:34.085Z,8.79
2023-12-30T15:22:37.979Z,8.70
2023-12-30T15:25:43.581Z,8.60
2023-12-30T15:28:46.047Z,8.58
2023-12-30T15:31:50.360Z,8.47
2023-12-30T15:34:53.092Z,8.42
2023-12-30T15:37:56.270Z,8.36
2023-12-30T15:40:59.605Z,8.43
2023-12-30T15:44:02.499Z,8.38
2023-12-30T15:47:11.301Z,8.40
2023-12-30T15:50:14.086Z,8.31
2023-12-30T15:53:18.845Z,8.27
2023-12-30T15:56:21.502Z,8.19
2023-12-30T15:59:23.876Z,8.18
2023-12-30T16:02:26.620Z,8.15
2023-12-30T16:05:29.450Z,8.10
2023-12-30T16:08:31.884Z,8.04
2023-12-30T16:11:35.326Z,7.95
2023-12-30T16:14:38.626Z,7.82
2023-12-30T16:17:43.091Z,7.84
2023-12-30T16:20:46.324Z,7.79
2023-12-30T16:23:49.194Z,7.79
2023-12-30T16:26:51.670Z,7.77
2023-12-30T16:29:54.367Z,7.79
2023-12-30T16:32:56.916Z,7.73
2023-12-30T16:35:59.738Z,7.68
2023-12-30T16:39:02.825Z,7.58
2023-12-30T16:42:05.676Z,7.61
2023-12-30T16:45:08.535Z,7.57
2023-12-30T16:48:11.552Z,7.57
2023-12-30T16:51:14.775Z,7.56
2023-12-30T16:54:17.428Z,7.52
2023-12-30T16:57:19.914Z,7.52
2023-12-30T17:00:22.827Z,7.51
2023-12-30T17:03:25.224Z,7.51
2023-12-30T17:06:27.984Z,7.55
2023-12-30T17:09:30.462Z,7.59
2023-12-30T17:12:33.249Z,7.51
2023-12-30T17:15:35.946Z,7.55
2023-12-30T17:18:38.789Z,7.62
2023-12-30T17:21:41.398Z,7.65
2023-12-30T17:24:44.062Z,7.60
2023-12-30T17:27:46.634Z,7.68
2023-12-30T17:30:49.774Z,7.62
2023-12-30T17:33:52.359Z,7.60
2023-12-30T17:36:55.258Z,7.60
2023-12-30T17:39:57.655Z,7.59
2023-12-30T17:43:00.727Z,7.52
2023-12-30T17:46:04.050Z,7.46
2023-12-30T17:49:06.866Z,7.40
2023-12-30T17:52:09.448Z,7.34
2023-12-30T17:55:12.263Z,7.38
2023-12-30T17:58:15.075Z,7.30
2023-12-30T18:01:19.487Z,7.32
2023-12-30T18:04:22.567Z,7.31
2023-12-30T18:07:25.143Z,7.36
2023-12-30T18:10:28.123Z,7.35
2023-12-30T18:13:30.800Z,7.33
2023-12-30T18:16:33.686Z,7.31
2023-12-30T18:19:36.407Z,7.32
2023-12-30T18:22:41.549Z,7.23
2023-12-30T18:25:44.160Z,7.22
2023-12-30T18:28:47.153Z,7.12
2023-12-30T18:31:49.688Z,7.13
2023-12-30T18:34:53.106Z,7.04
2023-12-30T18:37:55.567Z,7.15
2023-12-30T18:40:58.270Z,7.12
2023-12-30T18:44:01.270Z,7.03
2023-12-30T18:47:04.139Z,7.05
2023-12-30T18:50:06.905Z,7.04
2023-12-30T18:53:09.901Z,6.99
2023-12-30T18:56:12.343Z,7.01
2023-12-30T18:59:15.168Z,6.99
2023-12-30T19:02:17.936Z,7.01
2023-12-30T19:05:20.882Z,6.97
2023-12-30T19:08:23.360Z,6.94
2023-12-30T19:11:26.094Z,6.92
2023-12-30T19:14:28.674Z,6.89
2023-12-30T19:17:31.523Z,6.87
2023-12-30T19:20:34.069Z,6.86
2023-12-30T19:23:36.886Z,6.83
2023-12-30T19:26:41.947Z,6.78
2023-12-30T19:29:44.700Z,6.77
2023-12-30T19:32:47.088Z,6.71
2023-12-30T19:35:50.214Z,6.77
2023-12-30T19:38:54.574Z,6.76
2023-12-30T19:41:57.390Z,6.70
2023-12-30T19:45:00.130Z,6.72
2023-12-30T19:48:03.227Z,6.67
2023-12-30T19:51:05.776Z,6.62
2023-12-30T19:54:08.401Z,6.61
2023-12-30T19:57:11.118Z,6.58
2023-12-30T20:00:14.750Z,6.60
2023-12-30T20:03:19.240Z,6.52
2023-12-30T20:06:21.748Z,6.42
2023-12-30T20:09:24.656Z,6.47
2023-12-30T20:12:27.201Z,6.47
2023-12-30T20:15:29.915Z,6.49
2023-12-30T20:18:32.395Z,6.39
2023-12-30T20:21:35.527Z,6.43
2023-12-30T20:24:37.944Z,6.40
2023-12-30T20:27:42.210Z,6.41
2023-12-30T20:30:44.740Z,6.39
2023-12-30T20:33:48.215Z,6.34
2023-12-30T20:36:53.764Z,6.33
2023-12-30T20:39:56.418Z,6.32
2023-12-30T20:42:59.401Z,6.28
2023-12-30T20:46:02.107Z,6.29
2023-12-30T20:49:07.299Z,6.26
2023-12-30T20:52:10.301Z,6.26
2023-12-30T20:55:15.229Z,6.20
2023-12-30T20:58:18.843Z,6.19
2023-12-30T21:01:22.214Z,6.19
2023-12-30T21:04:25.098Z,6.18
2023-12-30T21:07:27.703Z,6.20
2023-12-30T21:10:30.575Z,6.14
2023-12-30T21:13:33.066Z,6.21
2023-12-30T21:16:36.746Z,6.20
2023-12-30T21:19:39.486Z,6.18
2023-12-30T21:22:42.264Z,6.17
2023-12-30T21:25:49.748Z,6.09
2023-12-30T21:28:52.633Z,6.11
2023-12-30T21:31:56.276Z,6.09
2023-12-30T21:34:59.061Z,6.11
2023-12-30T21:38:01.564Z,6.16
2023-12-30T21:41:07.309Z,6.18
2023-12-30T21:44:09.702Z,6.16
2023-12-30T21:47:12.552Z,6.17
2023-12-30T21:50:15.305Z,6.16
2023-12-30T21:53:18.088Z,6.11
2023-12-30T21:56:20.600Z,6.07
2023-12-30T21:59:23.308Z,5.98
2023-12-30T22:02:25.760Z,5.91
2023-12-30T22:05:28.951Z,5.99
2023-12-30T22:08:31.890Z,5.99
2023-12-30T22:11:34.615Z,5.94
2023-12-30T22:14:37.335Z,5.91
2023-12-30T22:17:40.106Z,5.80
2023-12-30T22:20:42.661Z,5.67
2023-12-30T22:23:46.078Z,5.61
2023-12-30T22:26:49.168Z,5.58
2023-12-30T22:29:51.864Z,5.62
2023-12-30T22:32:54.303Z,5.53
2023-12-30T22:35:57.033Z,5.58
2023-12-30T22:38:59.565Z,5.57
2023-12-30T22:42:02.367Z,5.53
2023-12-30T22:45:06.476Z,5.58
2023-12-30T22:48:09.309Z,5.52
2023-12-30T22:51:12.464Z,5.53
2023-12-30T22:54:16.342Z,5.58
2023-12-30T22:57:18.900Z,5.47
2023-12-30T23:00:28.267Z,5.52
2023-12-30T23:03:30.771Z,5.56
2023-12-30T23:06:33.506Z,5.58
2023-12-30T23:09:35.969Z,5.62
2023-12-30T23:12:39.492Z,5.66
2023-12-30T23:15:41.894Z,5.58
2023-12-30T23:18:44.799Z,5.57
2023-12-30T23:21:47.201Z,5.61
2023-12-30T23:24:50.889Z,5.59
2023-12-30T23:27:53.214Z,5.57
2023-12-30T23:30:56.382Z,5.53
2023-12-30T23:33:59.329Z,5.46
2023-12-30T23:37:02.112Z,5.44
2023-12-30T23:40:07.623Z,5.42
2023-12-30T23:43:11.635Z,5.23
2023-12-30T23:46:14.178Z,5.15
2023-12-30T23:49:16.960Z,5.04
2023-12-30T23:52:19.360Z,5.02
2023-12-30T23:55:22.142Z,4.93
2023-12-30T23:58:24.836Z,4.83
